ADDS METAR Data INFO
IDs: Format: Raw Decoded Include TAF

Data at: 0218 UTC 18 Jan 2018

PAKI 180156Z AUTO 34015KT 10SM OVC016 M07/M09 A2965 RMK AO2 SLP044 T10671089 FZRANO
PAKI 180134Z AUTO 34017KT 10SM OVC016 M07/M09 A2965 RMK AO2 FZRANO
PAKI 180112Z AUTO 34019KT 10SM OVC014 M07/M08 A2965 RMK AO2 FZRANO
PAKI 180056Z AUTO 34021G24KT 10SM OVC016 M07/M09 A2966 RMK AO2 SLP045 T10671089 FZRANO
PAKI 172356Z AUTO 35020G24KT 10SM OVC016 M07/M08 A2964 RMK AO2 PK WND 33027/2314 SLP040 T10671083 11061 21067 50003 FZRANO
PAKI 172314Z AUTO 34023KT 10SM OVC016 M06/M08 A2965 RMK AO2 PK WND 33027/2314 FZRANO
PAKI 172256Z AUTO 34020KT 10SM OVC014 M06/M08 A2965 RMK AO2 PK WND 34028/2217 SLP042 T10611083 FZRANO
PAKI 172228Z AUTO 34020KT 10SM BKN014 BKN022 M06/M08 A2964 RMK AO2 PK WND 34028/2217 FZRANO
PAKI 172209Z AUTO 34019KT 10SM SCT014 BKN022 M07/M08 A2964 RMK AO2 PK WND 35027/2158 FZRANO
PAKI 172156Z AUTO 34020KT 10SM BKN012 OVC022 M06/M08 A2964 RMK AO2 PK WND 34027/2151 SLP039 T10611083 FZRANO
PAKI 172056Z AUTO 33019G24KT 10SM OVC012 M07/M08 A2963 RMK AO2 SLP037 T10671078 51010 FZRANO
PAKI 171956Z AUTO 33018G24KT 10SM OVC012 M07/M08 A2962 RMK AO2 SLP033 T10671078 FZRANO
PAKI 171856Z AUTO 34019G26KT 10SM OVC012 M06/M08 A2961 RMK AO2 PK WND 34026/1852 SLP030 T10611078 FZRANO
PAKI 171756Z AUTO 34021KT 10SM OVC012 M06/M08 A2960 RMK AO2 PK WND 34030/1711 SLP026 T10611078 11039 21061 53018 FZRANO
PAKI 171656Z AUTO 34024G30KT 10SM OVC012 M06/M07 A2958 RMK AO2 PK WND 34030/1648 SLP019 T10561072 FZRANO
PAKI 171556Z AUTO 33021G27KT 10SM OVC010 M05/M06 A2956 RMK AO2 PK WND 33027/1550 SLP013 T10501061 FZRANO
PAKI 171456Z AUTO 33018G25KT 10SM OVC012 M04/M06 A2955 RMK AO2 SLP009 T10441056 56002 FZRANO
PAKI 171356Z AUTO 32019G23KT 10SM BKN012 OVC050 M05/M06 A2955 RMK AO2 PK WND 33026/1312 SLP009 T10501061 FZRANO
PAKI 171353Z AUTO 33019G23KT 10SM BKN012 OVC050 M05/M06 A2955 RMK AO2 PK WND 33026/1312 FZRANO
PAKI 171330Z AUTO 33016G25KT 10SM SCT010 OVC050 M05/M06 A2955 RMK AO2 PK WND 33026/1312 FZRANO
PAKI 171256Z AUTO 34023KT 10SM OVC010 M04/M06 A2956 RMK AO2 PK WND 33029/1228 SLP011 T10441056 FZRANO
PAKI 171156Z AUTO 33020G24KT 10SM OVC010 M04/M05 A2954 RMK AO2 PK WND 33028/1137 SLP004 T10391050 11028 21039 53016 FZRANO
PAKI 171056Z AUTO 33018G25KT 10SM OVC010 M03/M04 A2951 RMK AO2 PK WND 33029/1007 SLP995 T10331044 FZRANO
PAKI 170956Z AUTO 33023G29KT 10SM OVC010 M03/M04 A2951 RMK AO2 PK WND 33029/0956 SLP994 T10331044 FZRANO
PAKI 170856Z AUTO 33019G24KT 10SM OVC010 M03/M04 A2949 RMK AO2 SLP988 T10281039 400061028 51005 FZRANO
PAKI 170756Z AUTO 33018KT 10SM OVC010 M03/M03 A2949 RMK AO2 SLP988 T10281033 FZRANO
PAKI 170656Z AUTO 34017KT 10SM OVC010 M03/M04 A2948 RMK AO2 SLP987 T10281039 FZRANO
PAKI 170626Z AUTO 33017G24KT 10SM OVC010 M03/M03 A2947 RMK AO2 FZRANO
PAKI 170556Z AUTO 33019G24KT 10SM OVC006 M03/M03 A2947 RMK AO2 SLP983 60000 T10281033 11006 21028 53008 FZRANO
PAKI 170456Z AUTO 32018G23KT 10SM BKN006 OVC034 M02/M03 A2946 RMK AO2 SLP979 T10221028 FZRANO
PAKI 170451Z AUTO 32016G21KT 10SM SCT008 OVC034 M02/M03 A2946 RMK AO2 FZRANO
PAKI 170356Z AUTO 32014KT 10SM SCT014 OVC034 M02/M02 A2945 RMK AO2 SLP975 T10171022 FZRANO
PAKI 170328Z AUTO 32012KT 10SM FEW006 SCT010 OVC038 M02/M02 A2944 RMK AO2 FZRANO
PAKI 170256Z AUTO 32009KT 8SM OVC004 M01/M02 A2944 RMK AO2 CIG 003V008 SLP971 60000 T10111017 53000 FZRANO
PAKI 170246Z AUTO 32010KT 3SM BR OVC004 M01/M02 A2944 RMK AO2 FZRANO
PAKI 170235Z AUTO 32011KT 2SM BR OVC004 M01/M02 A2944 RMK AO2 FZRANO
PAKI 170218Z AUTO 32011KT 1SM BR OVC004 M01/M02 A2944 RMK AO2 FZRANO
PAKI 170204Z AUTO 32009KT 1 1/4SM BR OVC002 M01/M01 A2944 RMK AO2 FZRANO
PAKI 170156Z AUTO 32011KT 1SM BR OVC002 M01/M01 A2944 RMK AO2 UPE24SNB24E53 SLP971 P0000 T10111011 FZRANO
PAKI 170145Z AUTO 32010KT 3/4SM -SN BR OVC002 M01/M01 A2944 RMK AO2 UPE24SNB24 P0000 FZRANO
PAKI 170123Z AUTO 33010KT 1/2SM UP FZFG OVC002 M01/M01 A2944 RMK AO2 P0000 FZRANO
PAKI 170119Z AUTO 33009KT 1SM UP BR OVC002 M01/M01 A2943 RMK AO2 P0000 FZRANO
PAKI 170056Z AUTO 33010KT 1/2SM UP FZFG OVC002 M01/M01 A2944 RMK AO2 SLP969 P0000 T10061011 FZRANO
PAKI 162356Z AUTO 33009KT 1/4SM UP FZFG OVC002 M01/M01 A2944 RMK AO2 SNB35E45 SLP971 P0000 60000 T10111011 11006 21017 55002 FZRANO
PAKI 162345Z AUTO 35009KT 1/4SM UP FZFG OVC002 M01/M01 A2944 RMK AO2 SNB35E45 P0000 FZRANO
PAKI 162329Z AUTO 34010KT 1/2SM UP FZFG OVC002 M01/M01 A2944 RMK AO2 P0000 FZRANO
PAKI 162256Z AUTO 34011KT 1/4SM UP FZFG OVC002 M01/M01 A2944 RMK AO2 UPB33SNE33 SLP971 P0000 T10111011 FZRANO
PAKI 162156Z AUTO 34009KT 1/4SM -SN FZFG OVC002 M01/M01 A2944 RMK AO2 SNB2059E09B41 SLP971 P0000 T10111011 FZRANO
PAKI 162056Z AUTO 34007KT 1/4SM FZFG OVC002 M01/M02 A2945 RMK AO2 SLP973 T10111017 51011 FZRANO
PAKI 161956Z AUTO 36003KT 1/4SM FZFG OVC002 M02/M02 A2944 RMK AO2 SLP971 T10171022 FZRANO
PAKI 161925Z AUTO 34005KT 1/4SM FZFG BKN002 OVC025 M01/M02 A2943 RMK AO2 FZRANO
PAKI 161919Z AUTO 34004KT 1/2SM FZFG SCT002 OVC025 M01/M02 A2943 RMK AO2 FZRANO
PAKI 161910Z AUTO 28006KT 1SM BR SCT002 OVC025 M01/M02 A2942 RMK AO2 FZRANO
PAKI 161903Z AUTO 29004KT 1SM BR OVC025 M01/M02 A2942 RMK AO2 FZRANO
PAKI 161856Z AUTO 29004KT 2SM BR OVC025 M01/M01 A2942 RMK AO2 SLP966 T10111011 FZRANO
PAKI 161848Z AUTO 00000KT 1 1/2SM BR OVC025 M01/M01 A2942 RMK AO2 FZRANO
PAKI 161836Z AUTO 00000KT 1SM BR OVC025 M01/M01 A2942 RMK AO2 FZRANO
PAKI 161804Z AUTO 00000KT 1/2SM FZFG FEW003 OVC023 M01/M01 A2941 RMK AO2 FZRANO
PAKI 161756Z AUTO 00000KT 1/2SM FZFG BKN003 OVC023 M01/M01 A2941 RMK AO2 SLP961 60000 T10061011 10000 21017 50003 FZRANO
PAKI 161718Z AUTO 13004KT 1/2SM FZFG OVC003 M01/M01 A2942 RMK AO2 FZRANO
PAKI 161709Z AUTO 13006KT 3/4SM BR OVC003 M01/M01 A2942 RMK AO2 FZRANO
PAKI 161705Z AUTO 13006KT 1 1/2SM BR OVC003 M01/M02 A2942 RMK AO2 FZRANO
PAKI 161656Z AUTO 11005KT 8SM OVC003 M01/M02 A2942 RMK AO2 SLP963 T10111017 FZRANO
PAKI 161631Z AUTO 12004KT 10SM BKN003 M02/M02 A2941 RMK AO2 FZRANO
PAKI 161619Z AUTO 11006KT 10SM SCT003 M02/M02 A2941 RMK AO2 FZRANO
PAKI 161556Z AUTO 12003KT 10SM FEW041 M02/M02 A2941 RMK AO2 SLP959 T10171017 FZRANO
PAKI 161517Z AUTO 14006KT 10SM SCT008 OVC041 M01/M01 A2940 RMK AO2 FZRANO
PAKI 161456Z AUTO 14007KT 10SM FEW008 BKN020 OVC039 M01/M01 A2940 RMK AO2 SLP959 60000 T10061011 56002 FZRANO